sensor_id;sensor_type;location;lat;lon;timestamp;P1;durP1;ratioP1;P2;durP2;ratioP2
60076;SDS011;45950;45.208;20.374;2022-12-11T00:04:23;7.57;;;6.18;;
60076;SDS011;45950;45.208;20.374;2022-12-11T00:06:53;8.95;;;6.30;;
60076;SDS011;45950;45.208;20.374;2022-12-11T00:09:21;8.70;;;7.38;;
60076;SDS011;45950;45.208;20.374;2022-12-11T00:11:52;7.47;;;6.07;;
60076;SDS011;45950;45.208;20.374;2022-12-11T00:14:20;7.43;;;5.90;;
60076;SDS011;45950;45.208;20.374;2022-12-11T00:16:50;10.38;;;6.68;;
60076;SDS011;45950;45.208;20.374;2022-12-11T00:19:21;9.00;;;7.07;;
60076;SDS011;45950;45.208;20.374;2022-12-11T00:21:53;8.75;;;7.38;;
60076;SDS011;45950;45.208;20.374;2022-12-11T00:24:26;8.10;;;6.72;;
60076;SDS011;45950;45.208;20.374;2022-12-11T00:27:07;9.40;;;7.20;;
60076;SDS011;45950;45.208;20.374;2022-12-11T00:29:37;8.82;;;7.72;;
60076;SDS011;45950;45.208;20.374;2022-12-11T00:37:31;8.38;;;6.00;;
60076;SDS011;45950;45.208;20.374;2022-12-11T00:40:14;7.60;;;6.15;;
60076;SDS011;45950;45.208;20.374;2022-12-11T01:14:18;7.82;;;5.22;;
60076;SDS011;45950;45.208;20.374;2022-12-11T01:17:01;7.35;;;5.95;;
60076;SDS011;45950;45.208;20.374;2022-12-11T01:19:31;6.70;;;5.05;;
60076;SDS011;45950;45.208;20.374;2022-12-11T01:25:06;8.38;;;5.68;;
60076;SDS011;45950;45.208;20.374;2022-12-11T01:27:40;8.48;;;5.97;;
60076;SDS011;45950;45.208;20.374;2022-12-11T01:41:04;12.02;;;7.15;;
60076;SDS011;45950;45.208;20.374;2022-12-11T01:43:53;9.20;;;6.68;;
60076;SDS011;45950;45.208;20.374;2022-12-11T01:46:23;8.55;;;6.50;;
60076;SDS011;45950;45.208;20.374;2022-12-11T01:49:05;9.80;;;6.93;;
60076;SDS011;45950;45.208;20.374;2022-12-11T02:04:55;8.23;;;5.60;;
60076;SDS011;45950;45.208;20.374;2022-12-11T02:07:22;8.15;;;6.00;;
60076;SDS011;45950;45.208;20.374;2022-12-11T02:09:50;7.78;;;4.85;;
60076;SDS011;45950;45.208;20.374;2022-12-11T02:12:19;8.90;;;6.10;;
60076;SDS011;45950;45.208;20.374;2022-12-11T02:14:52;8.85;;;5.80;;
60076;SDS011;45950;45.208;20.374;2022-12-11T02:17:46;8.05;;;5.85;;
60076;SDS011;45950;45.208;20.374;2022-12-11T02:26:06;7.70;;;5.28;;
60076;SDS011;45950;45.208;20.374;2022-12-11T02:28:40;8.18;;;5.40;;
60076;SDS011;45950;45.208;20.374;2022-12-11T02:31:10;8.63;;;6.15;;
60076;SDS011;45950;45.208;20.374;2022-12-11T02:33:44;9.38;;;6.45;;
60076;SDS011;45950;45.208;20.374;2022-12-11T02:36:14;10.77;;;5.63;;
60076;SDS011;45950;45.208;20.374;2022-12-11T02:38:43;6.90;;;5.05;;
60076;SDS011;45950;45.208;20.374;2022-12-11T02:41:15;8.65;;;5.65;;
60076;SDS011;45950;45.208;20.374;2022-12-11T02:43:47;8.98;;;6.63;;
60076;SDS011;45950;45.208;20.374;2022-12-11T02:46:29;9.85;;;7.60;;
60076;SDS011;45950;45.208;20.374;2022-12-11T02:48:59;10.02;;;7.22;;
60076;SDS011;45950;45.208;20.374;2022-12-11T02:51:29;9.63;;;6.85;;
60076;SDS011;45950;45.208;20.374;2022-12-11T02:54:04;9.68;;;7.20;;
60076;SDS011;45950;45.208;20.374;2022-12-11T02:56:45;10.77;;;7.28;;
60076;SDS011;45950;45.208;20.374;2022-12-11T02:59:19;10.40;;;7.00;;
60076;SDS011;45950;45.208;20.374;2022-12-11T03:01:47;10.90;;;8.27;;
60076;SDS011;45950;45.208;20.374;2022-12-11T03:04:16;8.93;;;7.35;;
60076;SDS011;45950;45.208;20.374;2022-12-11T03:06:50;10.07;;;6.93;;
60076;SDS011;45950;45.208;20.374;2022-12-11T03:09:19;9.02;;;6.30;;
60076;SDS011;45950;45.208;20.374;2022-12-11T03:11:47;9.63;;;6.93;;
60076;SDS011;45950;45.208;20.374;2022-12-11T03:14:14;8.65;;;6.93;;
60076;SDS011;45950;45.208;20.374;2022-12-11T03:16:44;9.00;;;6.40;;
60076;SDS011;45950;45.208;20.374;2022-12-11T03:19:16;10.85;;;7.68;;
60076;SDS011;45950;45.208;20.374;2022-12-11T03:22:02;10.05;;;7.50;;
60076;SDS011;45950;45.208;20.374;2022-12-11T03:24:37;9.88;;;7.10;;
60076;SDS011;45950;45.208;20.374;2022-12-11T03:27:09;9.70;;;6.95;;
60076;SDS011;45950;45.208;20.374;2022-12-11T03:29:40;10.90;;;7.88;;
60076;SDS011;45950;45.208;20.374;2022-12-11T03:32:14;13.07;;;8.52;;
60076;SDS011;45950;45.208;20.374;2022-12-11T03:34:49;13.98;;;9.40;;
60076;SDS011;45950;45.208;20.374;2022-12-11T03:40:26;13.65;;;9.60;;
60076;SDS011;45950;45.208;20.374;2022-12-11T03:42:56;13.30;;;10.02;;
60076;SDS011;45950;45.208;20.374;2022-12-11T03:45:37;13.20;;;9.20;;
60076;SDS011;45950;45.208;20.374;2022-12-11T03:48:07;14.68;;;9.00;;
60076;SDS011;45950;45.208;20.374;2022-12-11T03:50:36;12.82;;;9.07;;
60076;SDS011;45950;45.208;20.374;2022-12-11T03:53:05;14.38;;;9.95;;
60076;SDS011;45950;45.208;20.374;2022-12-11T03:55:33;20.55;;;11.82;;
60076;SDS011;45950;45.208;20.374;2022-12-11T03:58:13;16.38;;;10.93;;
60076;SDS011;45950;45.208;20.374;2022-12-11T04:00:41;21.83;;;15.48;;
60076;SDS011;45950;45.208;20.374;2022-12-11T04:03:10;31.05;;;20.42;;
60076;SDS011;45950;45.208;20.374;2022-12-11T04:05:42;20.05;;;14.68;;
60076;SDS011;45950;45.208;20.374;2022-12-11T04:08:10;18.88;;;13.25;;
60076;SDS011;45950;45.208;20.374;2022-12-11T04:10:39;23.15;;;15.23;;
60076;SDS011;45950;45.208;20.374;2022-12-11T04:13:07;19.85;;;13.55;;
60076;SDS011;45950;45.208;20.374;2022-12-11T04:18:42;21.10;;;14.13;;
60076;SDS011;45950;45.208;20.374;2022-12-11T04:21:40;21.48;;;15.88;;
60076;SDS011;45950;45.208;20.374;2022-12-11T04:24:33;35.95;;;20.63;;
60076;SDS011;45950;45.208;20.374;2022-12-11T04:27:03;57.22;;;30.92;;
60076;SDS011;45950;45.208;20.374;2022-12-11T04:29:47;32.33;;;20.77;;
60076;SDS011;45950;45.208;20.374;2022-12-11T04:32:22;22.05;;;13.65;;
60076;SDS011;45950;45.208;20.374;2022-12-11T04:34:54;100.28;;;52.20;;
60076;SDS011;45950;45.208;20.374;2022-12-11T04:40:17;30.65;;;21.17;;
60076;SDS011;45950;45.208;20.374;2022-12-11T04:42:45;28.08;;;17.52;;
60076;SDS011;45950;45.208;20.374;2022-12-11T04:48:10;11.30;;;9.10;;
60076;SDS011;45950;45.208;20.374;2022-12-11T04:50:43;12.40;;;10.52;;
60076;SDS011;45950;45.208;20.374;2022-12-11T04:55:47;27.88;;;18.58;;
60076;SDS011;45950;45.208;20.374;2022-12-11T04:58:17;24.33;;;15.13;;
60076;SDS011;45950;45.208;20.374;2022-12-11T05:01:05;15.85;;;10.23;;
60076;SDS011;45950;45.208;20.374;2022-12-11T05:03:32;13.13;;;10.13;;
60076;SDS011;45950;45.208;20.374;2022-12-11T05:06:01;8.38;;;7.25;;
60076;SDS011;45950;45.208;20.374;2022-12-11T05:08:29;8.48;;;6.47;;
60076;SDS011;45950;45.208;20.374;2022-12-11T05:10:57;10.00;;;8.00;;
60076;SDS011;45950;45.208;20.374;2022-12-11T05:13:25;10.80;;;8.82;;
60076;SDS011;45950;45.208;20.374;2022-12-11T05:15:59;11.35;;;8.93;;
60076;SDS011;45950;45.208;20.374;2022-12-11T05:18:27;10.45;;;8.82;;
60076;SDS011;45950;45.208;20.374;2022-12-11T05:20:54;9.55;;;7.70;;
60076;SDS011;45950;45.208;20.374;2022-12-11T05:23:24;12.45;;;8.02;;
60076;SDS011;45950;45.208;20.374;2022-12-11T05:25:52;10.40;;;8.73;;
60076;SDS011;45950;45.208;20.374;2022-12-11T05:31:24;25.75;;;17.13;;
60076;SDS011;45950;45.208;20.374;2022-12-11T05:33:52;16.00;;;11.57;;
60076;SDS011;45950;45.208;20.374;2022-12-11T05:36:21;63.15;;;32.00;;
60076;SDS011;45950;45.208;20.374;2022-12-11T05:38:53;29.20;;;17.90;;
60076;SDS011;45950;45.208;20.374;2022-12-11T05:41:21;40.88;;;23.35;;
60076;SDS011;45950;45.208;20.374;2022-12-11T05:43:50;19.02;;;13.90;;
60076;SDS011;45950;45.208;20.374;2022-12-11T05:46:22;14.30;;;10.25;;
60076;SDS011;45950;45.208;20.374;2022-12-11T05:48:52;11.35;;;8.82;;
60076;SDS011;45950;45.208;20.374;2022-12-11T05:51:20;13.60;;;9.63;;
60076;SDS011;45950;45.208;20.374;2022-12-11T05:56:52;11.65;;;9.05;;
60076;SDS011;45950;45.208;20.374;2022-12-11T05:59:20;11.80;;;9.07;;
60076;SDS011;45950;45.208;20.374;2022-12-11T06:02:09;13.68;;;9.73;;
60076;SDS011;45950;45.208;20.374;2022-12-11T06:04:37;14.35;;;10.15;;
60076;SDS011;45950;45.208;20.374;2022-12-11T06:07:04;11.55;;;9.25;;
60076;SDS011;45950;45.208;20.374;2022-12-11T06:09:31;17.23;;;13.05;;
60076;SDS011;45950;45.208;20.374;2022-12-11T06:12:01;14.48;;;10.50;;
60076;SDS011;45950;45.208;20.374;2022-12-11T06:14:31;12.50;;;9.45;;
60076;SDS011;45950;45.208;20.374;2022-12-11T06:16:58;15.73;;;10.85;;
60076;SDS011;45950;45.208;20.374;2022-12-11T06:19:29;12.45;;;10.18;;
60076;SDS011;45950;45.208;20.374;2022-12-11T06:21:58;16.27;;;11.63;;
60076;SDS011;45950;45.208;20.374;2022-12-11T06:24:26;40.50;;;24.10;;
60076;SDS011;45950;45.208;20.374;2022-12-11T06:26:56;24.10;;;15.88;;
60076;SDS011;45950;45.208;20.374;2022-12-11T06:29:26;24.23;;;17.60;;
60076;SDS011;45950;45.208;20.374;2022-12-11T06:31:54;18.05;;;11.90;;
60076;SDS011;45950;45.208;20.374;2022-12-11T06:34:21;14.75;;;10.68;;
60076;SDS011;45950;45.208;20.374;2022-12-11T06:36:48;13.45;;;9.25;;
60076;SDS011;45950;45.208;20.374;2022-12-11T06:39:16;15.38;;;11.02;;
60076;SDS011;45950;45.208;20.374;2022-12-11T06:41:45;15.00;;;10.75;;
60076;SDS011;45950;45.208;20.374;2022-12-11T06:44:12;17.65;;;11.30;;
60076;SDS011;45950;45.208;20.374;2022-12-11T06:46:41;15.65;;;11.45;;
60076;SDS011;45950;45.208;20.374;2022-12-11T06:49:08;15.30;;;11.63;;
60076;SDS011;45950;45.208;20.374;2022-12-11T06:51:36;17.85;;;12.30;;
60076;SDS011;45950;45.208;20.374;2022-12-11T06:54:03;18.90;;;12.52;;
60076;SDS011;45950;45.208;20.374;2022-12-11T06:56:32;18.25;;;12.75;;
60076;SDS011;45950;45.208;20.374;2022-12-11T06:59:03;17.00;;;11.98;;
60076;SDS011;45950;45.208;20.374;2022-12-11T07:01:31;17.25;;;11.50;;
60076;SDS011;45950;45.208;20.374;2022-12-11T07:04:00;16.77;;;11.57;;
60076;SDS011;45950;45.208;20.374;2022-12-11T07:06:27;17.10;;;13.50;;
60076;SDS011;45950;45.208;20.374;2022-12-11T07:08:55;18.70;;;12.90;;
60076;SDS011;45950;45.208;20.374;2022-12-11T07:11:22;18.98;;;13.07;;
60076;SDS011;45950;45.208;20.374;2022-12-11T07:14:08;19.87;;;12.63;;
60076;SDS011;45950;45.208;20.374;2022-12-11T07:16:36;21.53;;;13.93;;
60076;SDS011;45950;45.208;20.374;2022-12-11T07:19:05;20.73;;;13.82;;
60076;SDS011;45950;45.208;20.374;2022-12-11T07:24:38;27.52;;;15.45;;
60076;SDS011;45950;45.208;20.374;2022-12-11T07:27:05;24.52;;;17.00;;
60076;SDS011;45950;45.208;20.374;2022-12-11T07:29:34;27.38;;;16.67;;
60076;SDS011;45950;45.208;20.374;2022-12-11T07:32:01;25.65;;;16.30;;
60076;SDS011;45950;45.208;20.374;2022-12-11T07:34:30;26.95;;;17.50;;
60076;SDS011;45950;45.208;20.374;2022-12-11T07:36:57;31.58;;;20.20;;
60076;SDS011;45950;45.208;20.374;2022-12-11T07:39:25;33.03;;;19.30;;
60076;SDS011;45950;45.208;20.374;2022-12-11T07:41:52;39.58;;;23.15;;
60076;SDS011;45950;45.208;20.374;2022-12-11T07:44:19;29.80;;;19.25;;
60076;SDS011;45950;45.208;20.374;2022-12-11T07:46:46;27.45;;;18.77;;
60076;SDS011;45950;45.208;20.374;2022-12-11T07:49:13;26.38;;;17.63;;
60076;SDS011;45950;45.208;20.374;2022-12-11T07:51:45;30.70;;;19.92;;
60076;SDS011;45950;45.208;20.374;2022-12-11T07:54:14;34.17;;;21.85;;
60076;SDS011;45950;45.208;20.374;2022-12-11T07:56:41;27.00;;;18.30;;
60076;SDS011;45950;45.208;20.374;2022-12-11T07:59:08;30.40;;;19.95;;
60076;SDS011;45950;45.208;20.374;2022-12-11T08:01:35;34.00;;;20.30;;
60076;SDS011;45950;45.208;20.374;2022-12-11T08:04:02;38.33;;;22.33;;
60076;SDS011;45950;45.208;20.374;2022-12-11T08:06:30;42.30;;;23.52;;
60076;SDS011;45950;45.208;20.374;2022-12-11T08:09:10;33.92;;;21.13;;
60076;SDS011;45950;45.208;20.374;2022-12-11T08:11:38;29.02;;;19.85;;
60076;SDS011;45950;45.208;20.374;2022-12-11T08:14:08;113.27;;;50.33;;
60076;SDS011;45950;45.208;20.374;2022-12-11T08:16:44;56.30;;;30.13;;
60076;SDS011;45950;45.208;20.374;2022-12-11T08:19:25;60.22;;;31.00;;
60076;SDS011;45950;45.208;20.374;2022-12-11T08:24:52;38.20;;;23.55;;
60076;SDS011;45950;45.208;20.374;2022-12-11T08:27:20;35.20;;;20.80;;
60076;SDS011;45950;45.208;20.374;2022-12-11T08:29:49;30.88;;;20.00;;
60076;SDS011;45950;45.208;20.374;2022-12-11T08:32:16;31.92;;;18.55;;
60076;SDS011;45950;45.208;20.374;2022-12-11T08:34:47;28.98;;;18.73;;
60076;SDS011;45950;45.208;20.374;2022-12-11T08:37:32;45.05;;;24.55;;
60076;SDS011;45950;45.208;20.374;2022-12-11T08:40:05;26.55;;;17.42;;
60076;SDS011;45950;45.208;20.374;2022-12-11T08:42:37;29.77;;;18.42;;
60076;SDS011;45950;45.208;20.374;2022-12-11T08:48:01;34.03;;;19.60;;
60076;SDS011;45950;45.208;20.374;2022-12-11T08:50:29;32.67;;;18.38;;
60076;SDS011;45950;45.208;20.374;2022-12-11T08:53:01;32.42;;;19.35;;
60076;SDS011;45950;45.208;20.374;2022-12-11T08:55:37;32.17;;;20.13;;
60076;SDS011;45950;45.208;20.374;2022-12-11T08:58:11;36.78;;;21.38;;
60076;SDS011;45950;45.208;20.374;2022-12-11T09:00:39;34.38;;;20.60;;
60076;SDS011;45950;45.208;20.374;2022-12-11T09:03:20;35.50;;;20.63;;
60076;SDS011;45950;45.208;20.374;2022-12-11T09:05:48;34.47;;;19.48;;
60076;SDS011;45950;45.208;20.374;2022-12-11T09:08:18;37.88;;;23.10;;
60076;SDS011;45950;45.208;20.374;2022-12-11T09:10:50;40.75;;;23.08;;
60076;SDS011;45950;45.208;20.374;2022-12-11T09:13:18;54.10;;;29.80;;
60076;SDS011;45950;45.208;20.374;2022-12-11T09:15:48;45.00;;;26.77;;
60076;SDS011;45950;45.208;20.374;2022-12-11T09:21:06;80.15;;;36.05;;
60076;SDS011;45950;45.208;20.374;2022-12-11T09:23:35;51.17;;;25.52;;
60076;SDS011;45950;45.208;20.374;2022-12-11T09:28:54;47.45;;;25.65;;
60076;SDS011;45950;45.208;20.374;2022-12-11T09:31:23;41.10;;;22.45;;
60076;SDS011;45950;45.208;20.374;2022-12-11T09:33:53;45.40;;;26.77;;
60076;SDS011;45950;45.208;20.374;2022-12-11T09:36:21;41.13;;;23.30;;
60076;SDS011;45950;45.208;20.374;2022-12-11T09:38:51;44.38;;;25.52;;
60076;SDS011;45950;45.208;20.374;2022-12-11T09:44:30;37.83;;;21.92;;
60076;SDS011;45950;45.208;20.374;2022-12-11T09:46:58;40.25;;;23.67;;
60076;SDS011;45950;45.208;20.374;2022-12-11T09:49:27;45.42;;;24.25;;
60076;SDS011;45950;45.208;20.374;2022-12-11T09:52:02;42.58;;;24.95;;
60076;SDS011;45950;45.208;20.374;2022-12-11T09:54:32;42.88;;;26.30;;
60076;SDS011;45950;45.208;20.374;2022-12-11T09:57:01;41.20;;;21.55;;
60076;SDS011;45950;45.208;20.374;2022-12-11T09:59:33;35.83;;;20.85;;
60076;SDS011;45950;45.208;20.374;2022-12-11T10:02:07;34.15;;;19.58;;
60076;SDS011;45950;45.208;20.374;2022-12-11T10:04:43;30.13;;;19.55;;
60076;SDS011;45950;45.208;20.374;2022-12-11T10:10:20;28.30;;;16.20;;
60076;SDS011;45950;45.208;20.374;2022-12-11T10:12:50;30.83;;;18.30;;
60076;SDS011;45950;45.208;20.374;2022-12-11T10:15:27;30.85;;;19.33;;
60076;SDS011;45950;45.208;20.374;2022-12-11T10:17:59;26.23;;;17.75;;
60076;SDS011;45950;45.208;20.374;2022-12-11T10:20:27;36.80;;;21.60;;
60076;SDS011;45950;45.208;20.374;2022-12-11T10:22:55;31.92;;;18.60;;
60076;SDS011;45950;45.208;20.374;2022-12-11T10:25:23;32.08;;;17.88;;
60076;SDS011;45950;45.208;20.374;2022-12-11T10:27:52;27.83;;;16.15;;
60076;SDS011;45950;45.208;20.374;2022-12-11T10:30:20;30.42;;;17.30;;
60076;SDS011;45950;45.208;20.374;2022-12-11T10:32:55;31.88;;;18.02;;
60076;SDS011;45950;45.208;20.374;2022-12-11T10:35:30;34.53;;;18.55;;
60076;SDS011;45950;45.208;20.374;2022-12-11T10:38:00;44.88;;;23.02;;
60076;SDS011;45950;45.208;20.374;2022-12-11T10:40:28;41.70;;;20.73;;
60076;SDS011;45950;45.208;20.374;2022-12-11T10:42:55;47.22;;;24.75;;
60076;SDS011;45950;45.208;20.374;2022-12-11T10:45:22;47.92;;;25.52;;
60076;SDS011;45950;45.208;20.374;2022-12-11T10:47:49;48.60;;;24.88;;
60076;SDS011;45950;45.208;20.374;2022-12-11T10:50:30;57.03;;;28.70;;
60076;SDS011;45950;45.208;20.374;2022-12-11T10:53:00;75.43;;;36.55;;
60076;SDS011;45950;45.208;20.374;2022-12-11T10:55:35;73.00;;;33.40;;
60076;SDS011;45950;45.208;20.374;2022-12-11T10:58:04;51.72;;;26.05;;
60076;SDS011;45950;45.208;20.374;2022-12-11T11:00:33;62.35;;;30.85;;
60076;SDS011;45950;45.208;20.374;2022-12-11T11:03:02;57.28;;;29.75;;
60076;SDS011;45950;45.208;20.374;2022-12-11T11:05:33;56.88;;;28.67;;
60076;SDS011;45950;45.208;20.374;2022-12-11T11:08:09;48.30;;;24.92;;
60076;SDS011;45950;45.208;20.374;2022-12-11T11:10:37;35.38;;;21.05;;
60076;SDS011;45950;45.208;20.374;2022-12-11T11:13:04;35.70;;;19.88;;
60076;SDS011;45950;45.208;20.374;2022-12-11T11:15:32;35.13;;;20.90;;
60076;SDS011;45950;45.208;20.374;2022-12-11T11:18:00;43.13;;;22.90;;
60076;SDS011;45950;45.208;20.374;2022-12-11T11:20:29;38.00;;;22.13;;
60076;SDS011;45950;45.208;20.374;2022-12-11T11:23:00;34.42;;;18.58;;
60076;SDS011;45950;45.208;20.374;2022-12-11T11:25:28;36.53;;;20.52;;
60076;SDS011;45950;45.208;20.374;2022-12-11T11:27:57;41.22;;;21.65;;
60076;SDS011;45950;45.208;20.374;2022-12-11T11:30:27;80.57;;;37.40;;
60076;SDS011;45950;45.208;20.374;2022-12-11T11:32:55;57.78;;;27.85;;
60076;SDS011;45950;45.208;20.374;2022-12-11T11:35:25;34.90;;;20.35;;
60076;SDS011;45950;45.208;20.374;2022-12-11T11:38:11;52.08;;;26.95;;
60076;SDS011;45950;45.208;20.374;2022-12-11T11:40:43;72.43;;;40.22;;
60076;SDS011;45950;45.208;20.374;2022-12-11T11:43:14;43.20;;;23.92;;
60076;SDS011;45950;45.208;20.374;2022-12-11T11:45:45;46.10;;;24.80;;
60076;SDS011;45950;45.208;20.374;2022-12-11T11:48:27;40.42;;;22.30;;
60076;SDS011;45950;45.208;20.374;2022-12-11T11:50:55;51.33;;;27.15;;
60076;SDS011;45950;45.208;20.374;2022-12-11T11:53:28;43.30;;;23.65;;
60076;SDS011;45950;45.208;20.374;2022-12-11T11:55:59;40.22;;;22.85;;
60076;SDS011;45950;45.208;20.374;2022-12-11T11:58:44;69.95;;;34.85;;
60076;SDS011;45950;45.208;20.374;2022-12-11T12:01:15;45.25;;;23.08;;
60076;SDS011;45950;45.208;20.374;2022-12-11T12:03:44;41.83;;;21.15;;
60076;SDS011;45950;45.208;20.374;2022-12-11T12:06:15;39.92;;;20.95;;
60076;SDS011;45950;45.208;20.374;2022-12-11T12:08:48;113.05;;;49.83;;
60076;SDS011;45950;45.208;20.374;2022-12-11T12:11:22;85.53;;;38.70;;
60076;SDS011;45950;45.208;20.374;2022-12-11T12:17:03;72.00;;;35.30;;
60076;SDS011;45950;45.208;20.374;2022-12-11T12:19:43;52.53;;;29.70;;
60076;SDS011;45950;45.208;20.374;2022-12-11T12:22:15;41.25;;;22.23;;
60076;SDS011;45950;45.208;20.374;2022-12-11T12:24:51;47.50;;;26.38;;
60076;SDS011;45950;45.208;20.374;2022-12-11T12:27:22;48.22;;;28.23;;
60076;SDS011;45950;45.208;20.374;2022-12-11T12:29:51;72.50;;;37.85;;
60076;SDS011;45950;45.208;20.374;2022-12-11T12:32:22;55.33;;;30.33;;
60076;SDS011;45950;45.208;20.374;2022-12-11T12:34:54;69.88;;;37.40;;
60076;SDS011;45950;45.208;20.374;2022-12-11T12:37:25;54.38;;;30.13;;
60076;SDS011;45950;45.208;20.374;2022-12-11T12:39:55;64.70;;;36.15;;
60076;SDS011;45950;45.208;20.374;2022-12-11T12:42:27;52.92;;;30.55;;
60076;SDS011;45950;45.208;20.374;2022-12-11T12:44:57;116.25;;;59.13;;
60076;SDS011;45950;45.208;20.374;2022-12-11T12:47:25;42.13;;;23.90;;
60076;SDS011;45950;45.208;20.374;2022-12-11T12:49:52;44.05;;;23.73;;
60076;SDS011;45950;45.208;20.374;2022-12-11T12:55:14;63.17;;;35.75;;
60076;SDS011;45950;45.208;20.374;2022-12-11T12:57:48;51.88;;;30.05;;
60076;SDS011;45950;45.208;20.374;2022-12-11T13:03:19;35.72;;;19.70;;
60076;SDS011;45950;45.208;20.374;2022-12-11T13:05:54;37.38;;;20.05;;
60076;SDS011;45950;45.208;20.374;2022-12-11T13:08:23;42.60;;;23.67;;
60076;SDS011;45950;45.208;20.374;2022-12-11T13:14:02;50.47;;;25.52;;
60076;SDS011;45950;45.208;20.374;2022-12-11T13:16:33;56.83;;;28.40;;
60076;SDS011;45950;45.208;20.374;2022-12-11T13:19:01;47.30;;;25.33;;
60076;SDS011;45950;45.208;20.374;2022-12-11T13:21:30;74.72;;;36.38;;
60076;SDS011;45950;45.208;20.374;2022-12-11T13:24:13;82.40;;;37.35;;
60076;SDS011;45950;45.208;20.374;2022-12-11T13:26:41;79.72;;;35.70;;
60076;SDS011;45950;45.208;20.374;2022-12-11T13:31:57;72.20;;;31.95;;
60076;SDS011;45950;45.208;20.374;2022-12-11T13:34:26;69.80;;;30.85;;
60076;SDS011;45950;45.208;20.374;2022-12-11T13:36:53;65.22;;;29.48;;
60076;SDS011;45950;45.208;20.374;2022-12-11T13:39:22;77.78;;;34.83;;
60076;SDS011;45950;45.208;20.374;2022-12-11T13:41:50;65.28;;;29.75;;
60076;SDS011;45950;45.208;20.374;2022-12-11T13:44:20;63.92;;;32.47;;
60076;SDS011;45950;45.208;20.374;2022-12-11T13:46:50;49.50;;;24.92;;
60076;SDS011;45950;45.208;20.374;2022-12-11T13:52:25;35.25;;;18.70;;
60076;SDS011;45950;45.208;20.374;2022-12-11T13:54:54;47.45;;;24.73;;
60076;SDS011;45950;45.208;20.374;2022-12-11T13:57:42;41.92;;;20.92;;
60076;SDS011;45950;45.208;20.374;2022-12-11T14:00:17;33.42;;;19.13;;
60076;SDS011;45950;45.208;20.374;2022-12-11T14:02:44;56.70;;;27.42;;
60076;SDS011;45950;45.208;20.374;2022-12-11T14:08:19;51.72;;;24.65;;
60076;SDS011;45950;45.208;20.374;2022-12-11T14:10:49;50.80;;;24.63;;
60076;SDS011;45950;45.208;20.374;2022-12-11T14:13:18;34.03;;;19.73;;
60076;SDS011;45950;45.208;20.374;2022-12-11T14:15:47;42.25;;;20.95;;
60076;SDS011;45950;45.208;20.374;2022-12-11T14:18:14;48.95;;;23.75;;
60076;SDS011;45950;45.208;20.374;2022-12-11T14:20:43;41.60;;;21.23;;
60076;SDS011;45950;45.208;20.374;2022-12-11T14:23:15;43.58;;;23.27;;
60076;SDS011;45950;45.208;20.374;2022-12-11T14:25:50;52.55;;;25.48;;
60076;SDS011;45950;45.208;20.374;2022-12-11T14:28:17;54.55;;;27.80;;
60076;SDS011;45950;45.208;20.374;2022-12-11T14:30:45;60.75;;;29.50;;
60076;SDS011;45950;45.208;20.374;2022-12-11T14:33:15;46.00;;;23.15;;
60076;SDS011;45950;45.208;20.374;2022-12-11T14:35:43;46.90;;;23.42;;
60076;SDS011;45950;45.208;20.374;2022-12-11T14:38:12;45.15;;;22.65;;
60076;SDS011;45950;45.208;20.374;2022-12-11T14:40:42;37.35;;;20.05;;
60076;SDS011;45950;45.208;20.374;2022-12-11T14:43:13;29.67;;;17.45;;
60076;SDS011;45950;45.208;20.374;2022-12-11T14:45:41;29.63;;;16.17;;
60076;SDS011;45950;45.208;20.374;2022-12-11T14:48:09;29.10;;;16.38;;
60076;SDS011;45950;45.208;20.374;2022-12-11T14:50:38;32.78;;;17.48;;
60076;SDS011;45950;45.208;20.374;2022-12-11T14:53:13;25.55;;;14.25;;
60076;SDS011;45950;45.208;20.374;2022-12-11T14:55:41;31.83;;;18.20;;
60076;SDS011;45950;45.208;20.374;2022-12-11T14:58:14;43.70;;;23.77;;
60076;SDS011;45950;45.208;20.374;2022-12-11T15:00:41;38.00;;;21.23;;
60076;SDS011;45950;45.208;20.374;2022-12-11T15:03:19;34.30;;;19.05;;
60076;SDS011;45950;45.208;20.374;2022-12-11T15:05:47;56.00;;;29.45;;
60076;SDS011;45950;45.208;20.374;2022-12-11T15:08:17;36.22;;;18.23;;
60076;SDS011;45950;45.208;20.374;2022-12-11T15:10:55;56.03;;;26.73;;
60076;SDS011;45950;45.208;20.374;2022-12-11T15:13:26;51.67;;;26.63;;
60076;SDS011;45950;45.208;20.374;2022-12-11T15:18:51;50.35;;;24.83;;
60076;SDS011;45950;45.208;20.374;2022-12-11T15:21:18;56.67;;;27.48;;
60076;SDS011;45950;45.208;20.374;2022-12-11T15:23:49;46.78;;;23.48;;
60076;SDS011;45950;45.208;20.374;2022-12-11T15:26:17;48.42;;;22.60;;
60076;SDS011;45950;45.208;20.374;2022-12-11T15:28:45;56.30;;;28.27;;
60076;SDS011;45950;45.208;20.374;2022-12-11T15:31:22;62.13;;;29.38;;
60076;SDS011;45950;45.208;20.374;2022-12-11T15:33:49;49.92;;;22.88;;
60076;SDS011;45950;45.208;20.374;2022-12-11T15:36:21;68.60;;;31.33;;
60076;SDS011;45950;45.208;20.374;2022-12-11T15:38:48;43.63;;;21.60;;
60076;SDS011;45950;45.208;20.374;2022-12-11T15:41:15;52.42;;;23.58;;
60076;SDS011;45950;45.208;20.374;2022-12-11T15:43:46;53.67;;;25.08;;
60076;SDS011;45950;45.208;20.374;2022-12-11T15:46:13;51.95;;;25.88;;
60076;SDS011;45950;45.208;20.374;2022-12-11T15:48:39;50.25;;;22.92;;
60076;SDS011;45950;45.208;20.374;2022-12-11T15:51:09;42.95;;;21.60;;
60076;SDS011;45950;45.208;20.374;2022-12-11T15:53:36;39.97;;;20.52;;
60076;SDS011;45950;45.208;20.374;2022-12-11T15:56:02;32.75;;;19.00;;
60076;SDS011;45950;45.208;20.374;2022-12-11T15:58:46;32.47;;;19.85;;
60076;SDS011;45950;45.208;20.374;2022-12-11T16:01:15;42.80;;;24.08;;
60076;SDS011;45950;45.208;20.374;2022-12-11T16:03:46;25.70;;;16.13;;
60076;SDS011;45950;45.208;20.374;2022-12-11T16:06:14;26.08;;;15.70;;
60076;SDS011;45950;45.208;20.374;2022-12-11T16:08:41;32.88;;;18.67;;
60076;SDS011;45950;45.208;20.374;2022-12-11T16:11:08;28.88;;;16.33;;
60076;SDS011;45950;45.208;20.374;2022-12-11T16:13:36;33.47;;;18.65;;
60076;SDS011;45950;45.208;20.374;2022-12-11T16:16:03;27.73;;;16.52;;
60076;SDS011;45950;45.208;20.374;2022-12-11T16:18:31;27.17;;;15.88;;
60076;SDS011;45950;45.208;20.374;2022-12-11T16:21:15;27.10;;;14.40;;
60076;SDS011;45950;45.208;20.374;2022-12-11T16:23:42;32.08;;;17.40;;
60076;SDS011;45950;45.208;20.374;2022-12-11T16:26:09;29.08;;;16.05;;
60076;SDS011;45950;45.208;20.374;2022-12-11T16:28:35;29.85;;;17.38;;
60076;SDS011;45950;45.208;20.374;2022-12-11T16:31:02;39.08;;;20.73;;
60076;SDS011;45950;45.208;20.374;2022-12-11T16:33:29;25.20;;;15.50;;
60076;SDS011;45950;45.208;20.374;2022-12-11T16:35:57;37.40;;;19.00;;
60076;SDS011;45950;45.208;20.374;2022-12-11T16:41:24;27.63;;;16.85;;
60076;SDS011;45950;45.208;20.374;2022-12-11T16:43:50;35.83;;;18.55;;
60076;SDS011;45950;45.208;20.374;2022-12-11T16:46:21;28.77;;;15.70;;
60076;SDS011;45950;45.208;20.374;2022-12-11T16:48:49;30.15;;;16.40;;
60076;SDS011;45950;45.208;20.374;2022-12-11T16:51:17;28.83;;;15.88;;
60076;SDS011;45950;45.208;20.374;2022-12-11T16:53:44;29.63;;;15.27;;
60076;SDS011;45950;45.208;20.374;2022-12-11T16:56:11;25.23;;;14.57;;